Time;durP1;ratioP1;P1;durP2;ratioP2;P2;SDS_P1;SDS_P2;PMS_P1;PMS_P2;Temp;Humidity;BMP_temperature;BMP_pressure;BME280_temperature;BME280_humidity;BME280_pressure;Samples;Min_cycle;Max_cycle;Signal;HPM_P1;HPM_P2
2023/10/03 00:00:25;;;;;;;17.92;7.45;;;;;;;15.11;100.00;100651.81;5094071;28;20047;-77
2023/10/03 00:02:56;;;;;;;13.45;7.88;;;;;;;15.02;100.00;100651.25;5093801;28;20035;-78
2023/10/03 00:05:23;;;;;;;13.48;7.22;;;;;;;14.96;100.00;100625.31;5093517;28;20388;-77
2023/10/03 00:08:08;;;;;;;16.17;7.45;;;;;;;15.05;100.00;100635.81;5075346;28;20032;-78
2023/10/03 00:10:38;;;;;;;15.63;7.43;;;;;;;15.03;100.00;100641.28;5093794;28;20061;-78
2023/10/03 00:13:08;;;;;;;13.93;7.28;;;;;;;15.09;100.00;100633.47;5092694;28;20031;-77
2023/10/03 00:15:36;;;;;;;13.75;7.90;;;;;;;15.04;100.00;100640.78;5093890;28;20063;-77
2023/10/03 00:18:02;;;;;;;19.00;7.03;;;;;;;14.98;100.00;100633.41;5060019;28;20028;-77
2023/10/03 00:20:28;;;;;;;17.63;7.97;;;;;;;14.95;100.00;100629.50;5094588;28;20034;-78
2023/10/03 00:22:53;;;;;;;16.30;7.05;;;;;;;14.74;100.00;100600.06;5094480;28;20059;-79
2023/10/03 00:25:21;;;;;;;15.27;7.18;;;;;;;14.93;100.00;100632.09;5094766;28;20042;-78
2023/10/03 00:27:53;;;;;;;18.73;7.05;;;;;;;14.87;100.00;100622.66;5076607;28;20042;-79
2023/10/03 00:30:20;;;;;;;17.48;7.55;;;;;;;14.87;100.00;100619.78;5076416;28;20043;-78
2023/10/03 00:32:48;;;;;;;13.98;7.38;;;;;;;14.84;100.00;100618.69;5094231;28;20377;-79
2023/10/03 00:35:15;;;;;;;14.13;7.32;;;;;;;14.80;100.00;100614.50;5076394;28;20039;-78
2023/10/03 00:37:43;;;;;;;16.23;7.68;;;;;;;14.78;100.00;100617.09;5093900;28;20381;-79
2023/10/03 00:40:27;;;;;;;14.77;7.50;;;;;;;14.80;100.00;100623.13;5076359;28;20028;-79
2023/10/03 00:42:59;;;;;;;14.30;7.43;;;;;;;14.79;100.00;100622.34;5078797;28;20052;-77
2023/10/03 00:45:29;;;;;;;14.85;6.53;;;;;;;14.75;100.00;100618.13;5076071;28;20024;-79
2023/10/03 00:48:08;;;;;;;14.48;7.22;;;;;;;14.71;100.00;100615.50;5076424;28;20118;-77
2023/10/03 00:50:42;;;;;;;17.42;6.85;;;;;;;14.70;100.00;100610.25;5094177;28;20028;-77
2023/10/03 00:53:08;;;;;;;14.77;7.15;;;;;;;14.71;100.00;100601.13;5074880;28;20039;-77
2023/10/03 00:55:38;;;;;;;14.15;7.40;;;;;;;14.65;100.00;100594.53;5075752;28;20066;-78
2023/10/03 01:00:49;;;;;;;14.40;7.35;;;;;;;14.55;100.00;100592.34;5075843;28;20473;-78
2023/10/03 01:03:37;;;;;;;14.88;7.47;;;;;;;14.56;100.00;100591.84;5094227;28;20055;-79
2023/10/03 01:06:11;;;;;;;12.27;6.43;;;;;;;14.54;100.00;100590.78;5092873;28;20062;-77
2023/10/03 01:08:39;;;;;;;15.60;7.80;;;;;;;14.52;100.00;100585.56;5057879;28;20027;-78
2023/10/03 01:11:18;;;;;;;17.95;7.50;;;;;;;14.50;100.00;100590.22;5092122;28;20034;-77
2023/10/03 01:14:00;;;;;;;12.35;6.63;;;;;;;14.46;100.00;100575.31;5058961;28;20590;-78
2023/10/03 01:16:36;;;;;;;13.48;7.15;;;;;;;14.45;100.00;100583.16;5058437;28;20016;-76
2023/10/03 01:19:30;;;;;;;15.32;6.45;;;;;;;14.43;100.00;100577.91;5092947;28;20059;-77
2023/10/03 01:21:59;;;;;;;13.90;7.15;;;;;;;14.43;100.00;100585.72;5092737;28;20063;-78
2023/10/03 01:24:26;;;;;;;18.10;7.10;;;;;;;14.42;100.00;100581.31;5092672;28;20051;-77
2023/10/03 01:26:53;;;;;;;12.68;6.30;;;;;;;14.41;100.00;100573.97;5075632;28;20473;-79
2023/10/03 01:29:35;;;;;;;13.43;6.95;;;;;;;14.41;100.00;100582.59;5075146;28;20119;-79
2023/10/03 01:32:01;;;;;;;13.63;6.70;;;;;;;14.36;100.00;100569.78;5090230;28;20039;-79
2023/10/03 01:34:27;;;;;;;14.75;6.32;;;;;;;14.33;100.00;100576.53;5092013;28;20465;-78
2023/10/03 01:36:53;;;;;;;19.13;7.30;;;;;;;14.26;100.00;100559.78;5074030;28;20043;-78
2023/10/03 01:39:30;;;;;;;14.70;7.75;;;;;;;14.22;100.00;100556.34;5073333;28;20036;-78
2023/10/03 01:41:57;;;;;;;15.90;6.78;;;;;;;14.34;100.00;100569.47;5092281;28;20031;-78
2023/10/03 01:44:22;;;;;;;19.00;7.50;;;;;;;14.34;100.00;100575.22;5074023;28;20130;-77
2023/10/03 01:46:56;;;;;;;13.50;7.43;;;;;;;14.34;100.00;100569.47;5091974;28;20115;-77
2023/10/03 01:49:22;;;;;;;14.80;7.63;;;;;;;14.33;100.00;100570.78;5091896;28;20073;-77
2023/10/03 01:51:47;;;;;;;16.45;7.35;;;;;;;14.32;100.00;100562.69;5091828;28;20038;-77
2023/10/03 01:54:15;;;;;;;16.27;7.95;;;;;;;14.31;100.00;100566.84;5073507;28;20434;-78
2023/10/03 01:56:46;;;;;;;11.85;6.57;;;;;;;14.14;100.00;100540.06;5091682;28;20055;-77
2023/10/03 01:59:11;;;;;;;14.60;7.40;;;;;;;14.26;100.00;100556.91;5086669;28;20069;-78
2023/10/03 02:01:38;;;;;;;13.27;6.70;;;;;;;14.08;100.00;100540.06;5092092;28;20075;-77
2023/10/03 02:04:06;;;;;;;17.75;7.95;;;;;;;14.19;100.00;100545.06;5092184;28;20515;-78
2023/10/03 02:06:31;;;;;;;15.88;6.93;;;;;;;14.19;100.00;100550.81;5093168;28;20031;-78
2023/10/03 02:08:59;;;;;;;16.95;7.47;;;;;;;14.12;100.00;100542.69;5075132;28;20028;-76
2023/10/03 02:11:27;;;;;;;14.93;7.82;;;;;;;14.09;100.00;100549.44;5075146;28;20469;-79
2023/10/03 02:13:54;;;;;;;21.00;7.85;;;;;;;14.09;100.00;100550.22;5093023;28;20024;-78
2023/10/03 02:16:20;;;;;;;14.48;6.65;;;;;;;14.11;100.00;100553.41;5092998;28;20046;-79
2023/10/03 02:18:46;;;;;;;14.27;7.93;;;;;;;14.07;100.00;100535.59;5092880;28;20524;-77
2023/10/03 02:21:16;;;;;;;17.58;7.22;;;;;;;14.05;100.00;100538.19;5074860;28;20107;-77
2023/10/03 02:23:43;;;;;;;14.15;6.75;;;;;;;14.04;100.00;100535.81;5058297;28;20036;-78
2023/10/03 02:26:10;;;;;;;18.92;7.47;;;;;;;14.01;100.00;100534.78;5092909;28;20469;-77
2023/10/03 02:28:40;;;;;;;17.45;6.93;;;;;;;13.99;100.00;100529.53;5062758;28;20036;-77
2023/10/03 02:31:09;;;;;;;13.98;7.32;;;;;;;13.95;100.00;100519.56;5101951;28;20024;-79
2023/10/03 02:33:42;;;;;;;11.70;6.60;;;;;;;13.91;100.00;100516.16;5102143;28;20044;-78
2023/10/03 02:36:10;;;;;;;15.00;7.30;;;;;;;13.87;100.00;100506.97;5082042;28;20141;-78
2023/10/03 02:38:37;;;;;;;12.93;7.57;;;;;;;13.89;100.00;100507.25;5082906;28;20372;-79
2023/10/03 02:41:06;;;;;;;16.63;6.60;;;;;;;13.87;100.00;100504.91;5082610;28;20496;-78
2023/10/03 02:43:34;;;;;;;17.73;7.53;;;;;;;13.86;100.00;100509.06;5065974;28;20032;-78
2023/10/03 02:46:04;;;;;;;14.35;6.95;;;;;;;13.80;100.00;100496.75;5079887;28;20024;-78
2023/10/03 02:48:30;;;;;;;15.15;7.57;;;;;;;13.82;100.00;100507.72;5096328;28;20031;-78
2023/10/03 02:50:57;;;;;;;15.07;6.75;;;;;;;13.82;100.00;100491.28;5080421;28;20031;-77
2023/10/03 02:53:22;;;;;;;15.40;6.88;;;;;;;13.80;100.00;100493.06;5096627;28;20358;-78
2023/10/03 02:55:54;;;;;;;17.20;7.22;;;;;;;13.78;100.00;100493.59;5074758;28;20520;-79
2023/10/03 02:58:22;;;;;;;11.02;6.97;;;;;;;13.76;100.00;100490.44;5074793;28;20079;-79
2023/10/03 03:00:57;;;;;;;16.58;8.35;;;;;;;13.75;100.00;100485.19;5075891;28;20377;-78
2023/10/03 03:03:43;;;;;;;15.18;7.35;;;;;;;13.74;100.00;100478.66;5075925;28;20031;-77
2023/10/03 03:06:13;;;;;;;14.98;7.80;;;;;;;13.68;100.00;100471.34;5074501;28;20473;-79
2023/10/03 03:08:44;;;;;;;13.07;8.33;;;;;;;13.70;100.00;100474.47;5074950;28;20036;-77
2023/10/03 03:11:11;;;;;;;18.55;7.88;;;;;;;13.64;100.00;100462.94;5075535;28;20046;-78
2023/10/03 03:13:37;;;;;;;16.55;8.57;;;;;;;13.59;100.00;100454.28;5075226;28;20478;-77
2023/10/03 03:16:03;;;;;;;18.98;8.43;;;;;;;13.63;100.00;100464.25;5074590;28;20035;-77
2023/10/03 03:18:32;;;;;;;15.77;8.05;;;;;;;13.60;100.00;100468.13;5074268;28;20108;-77
2023/10/03 03:20:59;;;;;;;15.70;8.13;;;;;;;13.53;100.00;100451.38;5074378;28;20028;-77
2023/10/03 03:23:39;;;;;;;15.15;7.95;;;;;;;13.55;100.00;100466.78;5057322;28;20044;-77
2023/10/03 03:28:44;;;;;;;19.50;9.45;;;;;;;13.52;100.00;100455.53;5074166;28;20029;-77
2023/10/03 03:31:21;;;;;;;14.13;7.72;;;;;;;13.46;100.00;100454.66;5075543;28;20099;-77
2023/10/03 03:34:02;;;;;;;15.70;7.95;;;;;;;13.46;100.00;100455.47;5075181;28;20050;-77
2023/10/03 03:36:30;;;;;;;16.30;8.43;;;;;;;13.45;100.00;100462.50;5074190;28;20089;-77
2023/10/03 03:39:15;;;;;;;20.27;8.50;;;;;;;13.43;100.00;100453.63;5073705;28;20462;-77
2023/10/03 03:41:43;;;;;;;14.77;7.50;;;;;;;13.41;100.00;100447.59;5074906;28;20031;-78
2023/10/03 03:44:11;;;;;;;16.92;8.05;;;;;;;13.40;100.00;100445.22;5057151;28;20549;-77
2023/10/03 03:46:40;;;;;;;16.65;8.20;;;;;;;13.39;100.00;100441.56;5072486;28;20435;-77
2023/10/03 03:49:08;;;;;;;15.65;7.82;;;;;;;13.37;100.00;100438.44;5074642;28;20385;-77
2023/10/03 03:51:36;;;;;;;18.05;8.70;;;;;;;13.36;100.00;100442.59;5073890;28;20032;-77
2023/10/03 03:54:03;;;;;;;16.05;7.85;;;;;;;13.35;100.00;100443.88;5073603;28;20475;-77
2023/10/03 03:56:29;;;;;;;18.60;7.55;;;;;;;13.34;100.00;100438.66;5057454;28;20056;-77
2023/10/03 03:58:56;;;;;;;18.02;7.32;;;;;;;13.34;100.00;100442.31;5075146;28;20068;-77
2023/10/03 04:01:23;;;;;;;15.02;8.00;;;;;;;13.33;100.00;100442.81;5075233;28;20032;-78
2023/10/03 04:03:50;;;;;;;15.55;7.03;;;;;;;13.31;100.00;100434.72;5055181;28;20037;-78
2023/10/03 04:06:20;;;;;;;16.42;8.80;;;;;;;13.29;100.00;100431.59;5057350;28;20036;-78
2023/10/03 04:08:47;;;;;;;15.75;7.82;;;;;;;13.29;100.00;100437.31;5073817;28;20045;-77
2023/10/03 04:11:14;;;;;;;15.68;8.32;;;;;;;13.28;100.00;100432.09;5074735;28;20031;-78
2023/10/03 04:13:49;;;;;;;17.80;7.60;;;;;;;13.26;100.00;100423.97;5074281;28;20024;-77
2023/10/03 04:16:21;;;;;;;17.90;7.70;;;;;;;13.24;100.00;100429.47;5074184;28;20036;-76
2023/10/03 04:18:51;;;;;;;13.80;7.43;;;;;;;13.28;100.00;100434.97;5074093;28;20115;-77
2023/10/03 04:21:16;;;;;;;18.73;7.68;;;;;;;13.28;100.00;100426.34;5073122;28;20032;-79
2023/10/03 04:23:44;;;;;;;14.82;7.55;;;;;;;13.24;100.00;100412.25;5074043;28;20503;-78
2023/10/03 04:26:10;;;;;;;17.10;7.70;;;;;;;13.28;100.00;100417.72;5074200;28;20036;-78
2023/10/03 04:28:38;;;;;;;19.30;8.55;;;;;;;13.23;100.00;100419.28;5073209;28;20370;-79
2023/10/03 04:31:12;;;;;;;17.92;8.50;;;;;;;13.25;100.00;100421.59;5073861;28;20248;-79
2023/10/03 04:33:39;;;;;;;15.63;7.90;;;;;;;13.22;100.00;100417.69;5074747;28;20098;-78
2023/10/03 04:36:09;;;;;;;13.63;7.30;;;;;;;13.20;100.00;100408.00;5074101;28;20028;-76
2023/10/03 04:38:36;;;;;;;14.20;7.70;;;;;;;13.18;100.00;100414.25;5074325;28;20052;-78
2023/10/03 04:41:02;;;;;;;18.80;7.63;;;;;;;13.19;100.00;100412.97;5072534;28;20496;-77
2023/10/03 04:43:30;;;;;;;15.45;7.47;;;;;;;13.19;100.00;100403.56;5073817;28;20040;-78
2023/10/03 04:45:56;;;;;;;20.60;8.48;;;;;;;13.12;100.00;100391.25;5072844;28;20040;-80
2023/10/03 04:48:22;;;;;;;19.10;7.85;;;;;;;13.19;100.00;100395.75;5073694;28;20055;-78
2023/10/03 04:50:49;;;;;;;18.67;7.88;;;;;;;13.14;100.00;100382.91;5056065;28;20028;-79
2023/10/03 04:53:16;;;;;;;15.75;7.68;;;;;;;13.13;100.00;100389.97;5072208;28;20421;-78
2023/10/03 04:55:48;;;;;;;14.00;8.25;;;;;;;13.19;100.00;100389.22;5083576;28;20047;-78
2023/10/03 04:58:15;;;;;;;14.70;7.75;;;;;;;13.19;100.00;100380.63;5094020;28;20063;-83
2023/10/03 05:00:45;;;;;;;23.15;8.07;;;;;;;13.20;100.00;100385.84;5094381;28;20020;-81
2023/10/03 05:03:10;;;;;;;11.00;7.30;;;;;;;13.21;100.00;100383.75;5076735;28;20036;-82
2023/10/03 05:05:36;;;;;;;16.50;8.45;;;;;;;13.21;100.00;100380.88;5094143;28;20036;-81
2023/10/03 05:08:02;;;;;;;16.15;7.72;;;;;;;13.21;100.00;100380.88;5075869;28;20125;-79
2023/10/03 05:10:36;;;;;;;20.48;8.75;;;;;;;13.24;100.00;100385.63;5093910;28;20028;-83
2023/10/03 05:13:04;;;;;;;20.67;8.35;;;;;;;13.25;100.00;100376.47;5093645;28;20020;-82
2023/10/03 05:15:31;;;;;;;19.88;8.70;;;;;;;13.30;100.00;100383.56;5075555;28;20385;-83
2023/10/03 05:18:00;;;;;;;20.40;7.93;;;;;;;13.38;100.00;100373.19;5093581;28;20028;-80
2023/10/03 05:20:37;;;;;;;16.63;7.38;;;;;;;13.40;100.00;100374.25;5093258;28;20024;-82
2023/10/03 05:23:03;;;;;;;18.58;7.55;;;;;;;13.43;100.00;100360.97;5093653;28;20051;-84
2023/10/03 05:25:29;;;;;;;15.18;6.88;;;;;;;13.47;100.00;100353.69;5072402;28;20635;-82
2023/10/03 05:27:55;;;;;;;18.30;8.23;;;;;;;13.56;100.00;100355.59;5092208;28;20038;-84
2023/10/03 05:30:23;;;;;;;17.88;8.13;;;;;;;13.46;100.00;100323.41;5093063;28;20032;-85
2023/10/03 05:32:49;;;;;;;17.30;8.38;;;;;;;13.72;100.00;100354.91;5075985;28;20079;-83
2023/10/03 05:35:15;;;;;;;16.35;7.90;;;;;;;13.81;100.00;100353.91;5093784;28;20115;-83
2023/10/03 05:37:43;;;;;;;15.27;7.70;;;;;;;13.87;100.00;100355.53;5075645;28;20031;-83
2023/10/03 05:40:19;;;;;;;22.58;7.70;;;;;;;13.93;100.00;100347.72;5075853;28;20031;-83
2023/10/03 05:42:50;;;;;;;15.05;7.07;;;;;;;14.06;100.00;100338.63;5077347;28;20028;-82
2023/10/03 05:45:18;;;;;;;24.08;8.82;;;;;;;14.24;100.00;100346.78;5059428;28;20032;-81
2023/10/03 05:47:57;;;;;;;22.02;8.52;;;;;;;14.37;100.00;100346.31;5059269;28;20113;-83
2023/10/03 05:50:23;;;;;;;14.38;7.32;;;;;;;14.54;100.00;100340.56;5075674;28;20512;-82
2023/10/03 05:52:49;;;;;;;18.55;7.78;;;;;;;14.83;100.00;100338.03;5092844;28;20131;-82
2023/10/03 05:55:15;;;;;;;18.15;6.53;;;;;;;15.08;100.00;100309.50;5075030;28;20105;-81
2023/10/03 05:57:42;;;;;;;13.02;6.50;;;;;;;15.61;100.00;100334.34;5097871;28;20058;-82
2023/10/03 06:00:21;;;;;;;17.05;6.88;;;;;;;15.99;100.00;100330.56;5101623;28;20047;-82
2023/10/03 06:03:09;;;;;;;14.82;6.82;;;;;;;16.35;100.00;100327.75;5081419;28;20089;-82
2023/10/03 06:05:35;;;;;;;20.38;7.15;;;;;;;16.72;100.00;100330.16;5091974;28;20048;-81
2023/10/03 06:08:02;;;;;;;15.55;6.78;;;;;;;17.64;100.00;100293.63;5092620;28;20031;-82
2023/10/03 06:10:29;;;;;;;15.02;6.72;;;;;;;18.80;100.00;100304.97;5094778;28;20027;-82
2023/10/03 06:12:56;;;;;;;19.75;7.72;;;;;;;19.17;100.00;100304.88;5097495;28;20028;-82
2023/10/03 06:15:24;;;;;;;13.45;6.05;;;;;;;19.09;100.00;100312.63;5096331;28;20036;-83
2023/10/03 06:17:52;;;;;;;15.32;6.82;;;;;;;18.73;100.00;100279.53;5096665;28;20050;-82
2023/10/03 06:20:18;;;;;;;13.80;7.15;;;;;;;19.02;100.00;100304.59;5097385;28;20059;-84
2023/10/03 06:22:46;;;;;;;14.27;5.80;;;;;;;20.16;100.00;100298.47;5079374;28;20469;-82
2023/10/03 06:25:12;;;;;;;14.38;6.38;;;;;;;21.76;100.00;100297.97;5079225;28;20092;-83
2023/10/03 06:27:39;;;;;;;16.20;6.40;;;;;;;23.36;100.00;100299.28;5096739;28;20465;-83
2023/10/03 06:30:08;;;;;;;15.65;6.22;;;;;;;24.81;100.00;100290.91;5096923;28;20032;-83
2023/10/03 06:32:33;;;;;;;17.85;6.28;;;;;;;26.07;100.00;100279.31;5097622;28;20472;-87
2023/10/03 06:35:04;;;;;;;11.50;5.85;;;;;;;27.17;100.00;100278.97;5107263;28;20035;-86
2023/10/03 06:37:32;;;;;;;;;;;;;;;27.80;100.00;100275.13;5108438;28;20024;-86
2023/10/03 06:39:59;;;;;;;20.00;6.05;;;;;;;28.64;100.00;100285.25;5114832;28;19970;-85
2023/10/03 06:42:26;;;;;;;10.65;5.50;;;;;;;29.22;100.00;100277.03;5087079;28;20084;-86
2023/10/03 06:44:51;;;;;;;13.07;6.78;;;;;;;29.76;100.00;100270.56;5121741;28;20004;-87
2023/10/03 06:47:20;;;;;;;11.82;6.10;;;;;;;30.34;97.05;100271.66;5104274;28;20010;-85
2023/10/03 06:49:47;;;;;;;14.25;6.20;;;;;;;30.74;93.06;100258.84;5121490;28;20018;-82
2023/10/03 06:52:13;;;;;;;13.68;5.50;;;;;;;31.14;90.74;100259.94;5121696;28;20065;-85
2023/10/03 06:54:42;;;;;;;15.32;6.63;;;;;;;31.40;85.85;100250.56;5121300;28;20093;-85
2023/10/03 06:57:07;;;;;;;12.50;5.93;;;;;;;31.65;84.12;100249.16;5121353;28;20016;-85
2023/10/03 06:59:33;;;;;;;15.52;6.05;;;;;;;31.90;82.50;100249.22;5097661;28;20050;-82
2023/10/03 07:02:05;;;;;;;14.13;6.35;;;;;;;31.96;79.74;100249.59;5098713;28;20020;-82
2023/10/03 07:04:31;;;;;;;13.02;5.50;;;;;;;31.77;78.90;100247.72;5080250;28;20032;-81
2023/10/03 07:06:57;;;;;;;11.88;5.70;;;;;;;31.88;80.01;100245.38;5073338;28;20036;-83
2023/10/03 07:09:25;;;;;;;12.32;5.93;;;;;;;32.02;79.25;100246.25;5084356;28;20059;-81
2023/10/03 07:11:52;;;;;;;10.32;5.40;;;;;;;32.08;78.38;100243.66;5097381;28;20162;-82
2023/10/03 07:14:19;;;;;;;11.68;6.97;;;;;;;31.99;78.75;100238.69;5099525;28;20048;-81
2023/10/03 07:16:46;;;;;;;14.20;6.18;;;;;;;31.99;78.56;100236.50;5100170;28;20110;-84
2023/10/03 07:19:16;;;;;;;14.82;5.65;;;;;;;32.03;79.72;100235.97;5099471;28;20027;-82
2023/10/03 07:21:42;;;;;;;16.08;6.50;;;;;;;32.07;78.67;100239.94;5097406;28;20034;-82
2023/10/03 07:24:09;;;;;;;14.55;6.03;;;;;;;32.08;77.87;100238.50;5079841;28;20030;-81
2023/10/03 07:26:43;;;;;;;13.63;6.35;;;;;;;32.04;78.66;100232.38;5094602;28;20097;-81
2023/10/03 07:29:09;;;;;;;9.50;6.07;;;;;;;32.06;79.25;100238.38;5096376;28;20369;-80
2023/10/03 07:31:36;;;;;;;15.07;7.10;;;;;;;32.13;79.52;100243.25;5096103;28;20024;-81
2023/10/03 07:34:12;;;;;;;13.02;6.75;;;;;;;31.90;79.00;100243.31;5077566;28;20028;-82
2023/10/03 07:36:40;;;;;;;14.00;7.45;;;;;;;31.78;80.24;100230.75;5098323;28;20464;-82
2023/10/03 07:39:08;;;;;;;11.43;6.97;;;;;;;31.71;80.90;100219.97;5100257;28;20050;-82
2023/10/03 07:41:33;;;;;;;18.38;6.95;;;;;;;31.75;80.73;100232.03;5097174;28;20035;-81
2023/10/03 07:43:58;;;;;;;11.98;6.80;;;;;;;31.68;81.48;100233.88;5099297;28;20407;-81
2023/10/03 07:46:25;;;;;;;13.10;6.60;;;;;;;31.50;81.08;100234.91;5103758;28;20056;-82
2023/10/03 07:48:54;;;;;;;12.07;6.82;;;;;;;31.36;80.15;100232.59;5068443;28;20451;-82
2023/10/03 07:51:29;;;;;;;13.07;6.75;;;;;;;31.35;81.01;100234.00;5101395;28;20028;-82
2023/10/03 07:54:11;;;;;;;14.95;6.80;;;;;;;31.16;80.99;100233.50;5100247;28;20029;-82
2023/10/03 07:56:41;;;;;;;14.35;6.18;;;;;;;31.11;81.35;100229.50;5096110;28;20044;-82
2023/10/03 07:59:07;;;;;;;9.63;5.88;;;;;;;30.93;81.75;100217.28;5096337;28;20044;-82
2023/10/03 08:01:38;;;;;;;13.43;6.53;;;;;;;30.90;82.26;100230.41;5096625;28;20024;-82
2023/10/03 08:04:12;;;;;;;13.55;6.75;;;;;;;30.88;83.14;100217.69;5095815;28;20020;-83
2023/10/03 08:06:41;;;;;;;14.32;6.53;;;;;;;30.87;84.00;100222.81;5095910;28;20024;-81
2023/10/03 08:09:08;;;;;;;13.93;6.10;;;;;;;30.91;84.64;100222.28;5060850;28;20035;-82
2023/10/03 08:11:52;;;;;;;12.73;6.55;;;;;;;30.89;84.13;100220.00;5096421;28;20035;-83
2023/10/03 08:14:18;;;;;;;9.98;6.40;;;;;;;30.99;83.08;100229.50;5095518;28;20027;-84
2023/10/03 08:16:45;;;;;;;13.20;6.75;;;;;;;30.98;82.98;100212.41;5060483;28;20028;-82
2023/10/03 08:19:21;;;;;;;13.90;6.63;;;;;;;30.90;82.26;100206.78;5095590;28;20059;-82
2023/10/03 08:21:48;;;;;;;11.40;6.30;;;;;;;30.92;81.99;100223.84;5062380;28;20053;-81
2023/10/03 08:24:19;;;;;;;15.25;6.65;;;;;;;30.70;82.54;100214.31;5044741;28;20061;-84
2023/10/03 08:26:51;;;;;;;11.65;6.60;;;;;;;30.60;84.12;100222.50;5095284;28;20456;-83
2023/10/03 08:29:21;;;;;;;11.30;5.53;;;;;;;30.56;86.05;100222.22;5077689;28;20036;-82
2023/10/03 08:31:57;;;;;;;14.17;6.17;;;;;;;30.45;84.45;100217.06;5061324;28;20473;-83
2023/10/03 08:34:27;;;;;;;11.80;5.95;;;;;;;30.37;85.31;100192.91;5076289;28;20289;-81
2023/10/03 08:36:54;;;;;;;10.63;6.60;;;;;;;30.46;87.38;100200.91;5076786;28;20472;-82
2023/10/03 08:39:24;;;;;;;19.55;6.35;;;;;;;30.49;86.29;100196.69;5094486;28;20032;-82
2023/10/03 08:42:13;;;;;;;14.50;6.90;;;;;;;30.35;85.05;100184.72;5077264;28;20123;-81
2023/10/03 08:44:52;;;;;;;12.93;5.78;;;;;;;30.31;83.81;100186.63;5094966;28;20032;-83
2023/10/03 08:47:28;;;;;;;12.15;5.75;;;;;;;30.19;83.98;100188.75;5076821;28;20028;-82
2023/10/03 08:50:28;;;;;;;13.80;6.47;;;;;;;29.99;85.90;100185.19;5096059;28;20028;-82
2023/10/03 08:53:12;;;;;;;12.50;6.75;;;;;;;29.79;87.92;100172.03;5078158;28;20066;-82
2023/10/03 08:55:46;;;;;;;16.38;7.07;;;;;;;29.66;87.11;100161.63;5094280;28;20060;-82
2023/10/03 08:58:14;;;;;;;10.93;6.03;;;;;;;29.68;88.48;100180.19;5094412;28;20024;-80
2023/10/03 09:00:45;;;;;;;14.75;6.53;;;;;;;29.57;90.63;100174.25;5076200;28;20043;-80
2023/10/03 09:03:14;;;;;;;;;;;;;;;29.32;90.79;100174.69;5076255;28;20032;-81
2023/10/03 09:05:40;;;;;;;12.35;5.80;;;;;;;29.17;91.51;100169.22;5076401;28;19916;-80
2023/10/03 09:08:14;;;;;;;15.68;6.85;;;;;;;29.01;92.41;100177.63;5076466;28;20031;-80
2023/10/03 09:10:51;;;;;;;18.15;6.95;;;;;;;28.94;92.31;100163.88;5085096;28;20036;-80
2023/10/03 09:13:35;;;;;;;13.80;5.93;;;;;;;28.94;91.03;100157.22;5111822;28;20024;-82
2023/10/03 09:16:08;;;;;;;17.63;6.18;;;;;;;28.88;90.25;100166.41;5095366;28;20119;-82
2023/10/03 09:18:40;;;;;;;18.38;6.50;;;;;;;28.76;90.67;100163.34;5096169;28;20028;-85
2023/10/03 09:21:23;;;;;;;18.50;5.80;;;;;;;28.70;92.36;100156.25;5078284;28;20032;-84
2023/10/03 09:24:01;;;;;;;15.13;6.07;;;;;;;28.68;93.24;100148.06;5094600;28;20079;-83
2023/10/03 09:26:51;;;;;;;15.55;6.07;;;;;;;28.65;93.70;100143.41;5077964;28;20499;-82
2023/10/03 09:29:29;;;;;;;22.42;7.50;;;;;;;28.63;92.53;100142.53;5093993;28;20036;-83
2023/10/03 09:32:19;;;;;;;20.17;6.88;;;;;;;28.58;93.06;100132.63;5094276;28;20036;-85
2023/10/03 09:34:56;;;;;;;11.15;5.40;;;;;;;28.60;92.11;100132.75;5075069;28;20406;-86
2023/10/03 09:37:32;;;;;;;16.20;6.50;;;;;;;28.63;92.21;100142.53;5077384;28;20035;-83
2023/10/03 09:40:01;;;;;;;12.85;6.78;;;;;;;28.64;93.20;100133.03;5094175;28;20024;-82
2023/10/03 09:42:39;;;;;;;14.32;6.10;;;;;;;28.64;91.66;100121.28;5059394;28;20035;-81
2023/10/03 09:45:06;;;;;;;11.20;5.68;;;;;;;28.57;92.50;100107.56;5094470;28;20388;-81
2023/10/03 09:47:34;;;;;;;11.88;6.22;;;;;;;28.63;94.12;100119.75;5098066;28;20036;-82
2023/10/03 09:50:06;;;;;;;19.30;6.40;;;;;;;28.66;94.53;100121.44;5080204;28;20036;-80
2023/10/03 09:52:33;;;;;;;13.15;6.05;;;;;;;28.71;95.05;100129.16;5080964;28;20031;-85
2023/10/03 09:55:03;;;;;;;11.30;6.07;;;;;;;28.70;92.03;100126.84;5079182;28;20055;-84
2023/10/03 09:57:30;;;;;;;11.40;5.82;;;;;;;28.68;91.13;100127.47;5096696;28;20028;-81
2023/10/03 09:59:56;;;;;;;19.55;6.28;;;;;;;28.69;91.97;100122.34;5047315;28;20035;-83
2023/10/03 10:02:33;;;;;;;14.23;5.60;;;;;;;28.74;93.10;100122.00;5080380;28;20043;-85
2023/10/03 10:05:19;;;;;;;11.13;6.45;;;;;;;28.80;92.61;100115.78;5098409;28;20114;-80
2023/10/03 10:08:13;;;;;;;10.77;5.78;;;;;;;28.92;93.45;100107.06;5080197;28;20027;-81
2023/10/03 10:11:11;;;;;;;12.38;5.95;;;;;;;29.05;92.91;100110.25;5084788;28;20028;-82
2023/10/03 10:13:44;;;;;;;12.18;5.93;;;;;;;29.13;89.84;100107.13;5085228;28;20028;-81
2023/10/03 10:16:20;;;;;;;11.80;6.13;;;;;;;29.05;88.68;100080.06;5101139;28;20047;-81
2023/10/03 10:19:18;;;;;;;12.48;6.25;;;;;;;29.12;89.97;100097.53;5096908;28;20036;-82
2023/10/03 10:21:51;;;;;;;9.60;5.50;;;;;;;28.99;87.63;100082.53;5084308;28;20038;-81
2023/10/03 10:24:40;;;;;;;11.95;5.40;;;;;;;29.05;87.60;100098.47;5079615;28;20036;-82
2023/10/03 10:27:21;;;;;;;13.75;5.63;;;;;;;28.94;86.75;100086.59;5095411;28;20052;-83
2023/10/03 10:30:00;;;;;;;14.30;5.60;;;;;;;28.93;88.46;100094.69;5098783;28;20031;-83
2023/10/03 10:33:27;;;;;;;10.45;6.18;;;;;;;28.93;92.35;100088.00;5082490;28;20068;-83
2023/10/03 10:36:03;;;;;;;10.48;5.75;;;;;;;28.91;92.18;100091.59;5097908;28;20028;-82
2023/10/03 10:38:49;;;;;;;14.40;6.60;;;;;;;28.84;93.56;100084.47;5081206;28;20039;-83
2023/10/03 10:41:30;;;;;;;11.05;6.15;;;;;;;28.83;93.22;100082.97;5096937;28;20059;-84
2023/10/03 10:44:17;;;;;;;;;;;;;;;28.78;94.30;100084.09;5097118;28;20423;-82
2023/10/03 10:46:47;;;;;;;11.32;5.32;;;;;;;28.71;93.58;100069.56;5062541;28;20417;-84
2023/10/03 10:49:56;;;;;;;15.75;5.72;;;;;;;28.72;94.49;100074.81;5078311;28;20562;-83
2023/10/03 10:52:23;;;;;;;12.10;6.50;;;;;;;28.69;95.72;100061.34;5087365;28;20100;-79
2023/10/03 10:54:50;;;;;;;13.88;5.82;;;;;;;28.70;95.65;100065.84;5078293;28;20111;-81
2023/10/03 10:57:18;;;;;;;13.77;6.45;;;;;;;28.41;94.03;100024.81;5096140;28;20036;-80
2023/10/03 11:00:12;;;;;;;11.18;5.93;;;;;;;28.50;94.82;100052.63;5096747;28;20095;-82
2023/10/03 11:02:43;;;;;;;11.95;6.03;;;;;;;28.47;95.74;100045.06;5097774;28;20035;-82
2023/10/03 11:05:10;;;;;;;14.00;6.10;;;;;;;28.33;96.84;100018.34;5102533;28;20024;-81
2023/10/03 11:07:37;;;;;;;11.98;6.10;;;;;;;28.42;97.98;100040.28;5121246;28;20066;-80
2023/10/03 11:10:15;;;;;;;10.07;5.75;;;;;;;28.31;98.56;100020.34;5103769;28;20008;-81
2023/10/03 11:12:42;;;;;;;13.25;6.32;;;;;;;28.34;99.73;100030.88;5086297;28;20099;-80
2023/10/03 11:15:12;;;;;;;15.77;6.30;;;;;;;28.36;99.12;100022.19;5117702;28;20036;-80
2023/10/03 11:17:41;;;;;;;13.20;6.40;;;;;;;28.35;98.59;100020.66;5101217;28;20020;-82
2023/10/03 11:20:23;;;;;;;14.38;6.53;;;;;;;28.36;97.72;100022.97;5111364;28;20349;-81
2023/10/03 11:22:49;;;;;;;15.45;5.72;;;;;;;28.29;95.68;100015.09;5081607;28;20032;-82
2023/10/03 11:25:15;;;;;;;12.32;5.45;;;;;;;28.27;96.90;100003.22;5080977;28;20032;-83
2023/10/03 11:27:42;;;;;;;11.48;5.95;;;;;;;28.26;98.46;100001.66;5096329;28;20107;-84
2023/10/03 11:30:14;;;;;;;12.70;5.63;;;;;;;28.27;96.63;100005.38;5079143;28;20543;-83
2023/10/03 11:32:41;;;;;;;14.20;6.30;;;;;;;28.23;97.16;99987.47;5096273;28;20032;-83
2023/10/03 11:35:17;;;;;;;12.45;6.25;;;;;;;28.22;97.77;99982.97;5095796;28;20031;-82
2023/10/03 11:37:44;;;;;;;13.48;5.55;;;;;;;28.22;97.79;99988.84;5078039;28;20338;-83